createdAt,value
2018-08-17T00:01:04.878Z,22.21
2018-08-17T00:03:32.465Z,22.20
2018-08-17T00:06:00.080Z,22.16
2018-08-17T00:08:27.618Z,22.20
2018-08-17T00:10:55.140Z,22.14
2018-08-17T00:13:22.852Z,22.20
2018-08-17T00:15:50.426Z,22.23
2018-08-17T00:18:18.005Z,22.28
2018-08-17T00:20:45.758Z,22.22
2018-08-17T00:23:13.430Z,22.28
2018-08-17T00:25:41.031Z,22.30
2018-08-17T00:28:09.839Z,22.34
2018-08-17T00:30:37.785Z,22.40
2018-08-17T00:33:05.807Z,22.36
2018-08-17T00:35:35.930Z,22.44
2018-08-17T00:38:03.626Z,22.41
2018-08-17T00:40:31.497Z,22.49
2018-08-17T00:42:59.382Z,22.48
2018-08-17T00:45:27.019Z,22.49
2018-08-17T00:47:55.023Z,22.56
2018-08-17T00:50:22.854Z,22.54
2018-08-17T00:52:50.505Z,22.55
2018-08-17T00:55:18.176Z,22.50
2018-08-17T00:57:45.968Z,22.60
2018-08-17T01:00:13.887Z,22.40
2018-08-17T01:02:41.530Z,22.41
2018-08-17T01:05:09.527Z,22.43
2018-08-17T01:07:37.133Z,22.42
2018-08-17T01:10:05.221Z,22.40
2018-08-17T01:12:32.939Z,22.42
2018-08-17T01:15:00.650Z,22.43
2018-08-17T01:17:28.309Z,22.51
2018-08-17T01:19:56.106Z,22.53
2018-08-17T01:22:23.966Z,22.49
2018-08-17T01:24:51.653Z,22.47
2018-08-17T01:27:20.742Z,22.41
2018-08-17T01:29:48.638Z,22.42
2018-08-17T01:32:16.469Z,22.43
2018-08-17T01:34:44.369Z,22.50
2018-08-17T01:37:12.554Z,22.44
2018-08-17T01:39:40.389Z,22.37
2018-08-17T01:42:08.362Z,22.39
2018-08-17T01:44:36.112Z,22.39
2018-08-17T01:47:03.952Z,22.42
2018-08-17T01:49:31.564Z,22.38
2018-08-17T01:51:59.258Z,22.41
2018-08-17T01:54:26.779Z,22.43
2018-08-17T01:56:54.373Z,22.47
2018-08-17T01:59:21.910Z,22.46
2018-08-17T02:01:49.492Z,22.39
2018-08-17T02:04:17.035Z,22.38
2018-08-17T02:06:44.618Z,22.31
2018-08-17T02:09:12.157Z,22.36
2018-08-17T02:11:39.725Z,22.11
2018-08-17T02:14:07.269Z,22.22
2018-08-17T02:16:34.846Z,22.23
2018-08-17T02:19:02.437Z,21.51
2018-08-17T02:21:30.058Z,21.53
2018-08-17T02:23:57.614Z,21.29
2018-08-17T02:26:25.207Z,21.16
2018-08-17T02:28:52.745Z,20.52
2018-08-17T02:31:20.496Z,20.70
2018-08-17T02:33:48.037Z,20.68
2018-08-17T02:36:15.729Z,20.45
2018-08-17T02:38:43.341Z,20.04
2018-08-17T02:41:11.039Z,20.01
2018-08-17T02:43:38.722Z,20.46
2018-08-17T02:46:06.275Z,20.23
2018-08-17T02:48:33.905Z,20.09
2018-08-17T02:51:01.518Z,19.67
2018-08-17T02:53:29.089Z,19.81
2018-08-17T02:56:03.541Z,20.18
2018-08-17T03:03:01.425Z,19.65
2018-08-17T03:05:28.966Z,19.55
2018-08-17T03:07:56.515Z,19.88
2018-08-17T03:10:24.097Z,19.71
2018-08-17T03:12:51.700Z,19.77
2018-08-17T03:15:19.264Z,19.97
2018-08-17T03:17:46.843Z,19.50
2018-08-17T03:20:14.606Z,19.94
2018-08-17T03:22:42.182Z,20.11
2018-08-17T03:25:09.784Z,20.26
2018-08-17T03:27:37.326Z,20.31
2018-08-17T03:30:04.877Z,20.44
2018-08-17T03:32:32.472Z,20.45
2018-08-17T03:35:00.051Z,20.41
2018-08-17T03:37:27.742Z,20.56
2018-08-17T03:39:55.299Z,20.70
2018-08-17T03:42:23.014Z,20.73
2018-08-17T03:44:56.471Z,20.81
2018-08-17T03:47:24.044Z,20.81
2018-08-17T03:49:51.742Z,20.64
2018-08-17T03:52:19.289Z,20.79
2018-08-17T03:54:47.704Z,20.88
2018-08-17T03:57:15.301Z,20.81
2018-08-17T03:59:42.864Z,20.96
2018-08-17T04:02:10.636Z,20.71
2018-08-17T04:04:38.427Z,20.89
2018-08-17T04:07:05.957Z,20.98
2018-08-17T04:09:33.659Z,20.78
2018-08-17T04:12:01.195Z,20.86
2018-08-17T04:14:28.845Z,20.64
2018-08-17T04:16:56.409Z,20.68
2018-08-17T04:19:24.117Z,20.77
2018-08-17T04:21:51.668Z,20.77
2018-08-17T04:24:19.231Z,20.78
2018-08-17T04:26:47.039Z,20.43
2018-08-17T04:29:14.581Z,20.64
2018-08-17T04:31:42.200Z,20.74
2018-08-17T04:34:12.599Z,20.45
2018-08-17T04:36:40.247Z,19.93
2018-08-17T04:39:08.440Z,20.52
2018-08-17T04:41:36.571Z,20.57
2018-08-17T04:44:04.151Z,20.64
2018-08-17T04:46:32.716Z,20.74
2018-08-17T04:49:00.329Z,20.77
2018-08-17T04:51:27.880Z,20.73
2018-08-17T04:53:55.686Z,20.58
2018-08-17T04:56:23.243Z,20.61
2018-08-17T04:58:50.814Z,20.55
2018-08-17T05:01:19.534Z,20.37
2018-08-17T05:03:47.085Z,20.23
2018-08-17T05:06:14.674Z,20.13
2018-08-17T05:08:42.219Z,20.42
2018-08-17T05:11:09.851Z,20.47
2018-08-17T05:13:37.395Z,20.37
2018-08-17T05:16:04.976Z,20.43
2018-08-17T05:18:32.606Z,20.22
2018-08-17T05:21:00.330Z,20.39
2018-08-17T05:23:27.922Z,20.43
2018-08-17T05:25:55.539Z,20.18
2018-08-17T05:28:23.093Z,20.33
2018-08-17T05:30:50.662Z,20.32
2018-08-17T05:33:18.214Z,20.68
2018-08-17T05:35:45.791Z,20.71
2018-08-17T05:38:13.532Z,20.40
2018-08-17T05:40:41.287Z,20.65
2018-08-17T05:43:09.192Z,20.76
2018-08-17T05:45:36.816Z,20.83
2018-08-17T05:48:04.361Z,20.14
2018-08-17T05:50:31.886Z,20.65
2018-08-17T05:52:59.519Z,20.52
2018-08-17T05:55:27.242Z,20.77
2018-08-17T05:57:54.780Z,20.82
2018-08-17T06:00:22.349Z,20.76
2018-08-17T06:02:49.900Z,20.82
2018-08-17T06:05:19.629Z,20.78
2018-08-17T06:07:47.181Z,20.36
2018-08-17T06:10:14.796Z,20.41
2018-08-17T06:12:44.416Z,20.13
2018-08-17T06:15:12.127Z,20.12
2018-08-17T06:17:39.697Z,19.67
2018-08-17T06:20:07.251Z,19.90
2018-08-17T06:22:34.891Z,19.66
2018-08-17T06:25:02.645Z,19.51
2018-08-17T06:27:30.316Z,19.67
2018-08-17T06:29:57.907Z,19.72
2018-08-17T06:32:25.571Z,20.05
2018-08-17T06:34:53.348Z,19.73
2018-08-17T06:37:21.180Z,19.57
2018-08-17T06:39:48.905Z,19.81
2018-08-17T06:42:16.478Z,20.05
2018-08-17T06:44:44.061Z,20.07
2018-08-17T06:47:11.612Z,20.17
2018-08-17T06:49:39.199Z,20.25
2018-08-17T06:52:06.767Z,20.17
2018-08-17T06:54:34.380Z,20.14
2018-08-17T06:57:01.975Z,20.27
2018-08-17T06:59:29.495Z,20.27
2018-08-17T07:01:57.076Z,20.25
2018-08-17T07:04:24.686Z,20.26
2018-08-17T07:06:52.288Z,20.27
2018-08-17T07:09:19.955Z,20.33
2018-08-17T07:11:47.457Z,20.23
2018-08-17T07:14:14.975Z,20.18
2018-08-17T07:16:42.637Z,20.21
2018-08-17T07:19:15.595Z,20.12
2018-08-17T07:21:43.221Z,20.06
2018-08-17T07:24:10.756Z,19.97
2018-08-17T07:26:39.557Z,19.96
2018-08-17T07:29:07.100Z,19.93
2018-08-17T07:31:34.667Z,19.89
2018-08-17T07:34:02.220Z,19.90
2018-08-17T07:36:30.906Z,19.80
2018-08-17T07:38:58.452Z,19.86
2018-08-17T07:41:26.031Z,19.79
2018-08-17T07:43:53.594Z,19.81
2018-08-17T07:46:22.233Z,19.80
2018-08-17T07:48:49.825Z,19.78
2018-08-17T07:51:17.372Z,19.86
2018-08-17T07:53:44.934Z,19.83
2018-08-17T07:56:12.710Z,19.86
2018-08-17T07:58:40.271Z,19.85
2018-08-17T08:01:07.792Z,19.87
2018-08-17T08:03:35.361Z,19.85
2018-08-17T08:06:06.822Z,19.89
2018-08-17T08:08:34.394Z,19.94
2018-08-17T08:11:01.970Z,19.85
2018-08-17T08:13:29.518Z,19.97
2018-08-17T08:15:57.095Z,19.95
2018-08-17T08:18:24.788Z,20.00
2018-08-17T08:20:52.615Z,20.06
2018-08-17T08:23:20.287Z,20.03
2018-08-17T08:25:47.845Z,20.06
2018-08-17T08:28:15.548Z,20.09
2018-08-17T08:30:46.770Z,20.17
2018-08-17T08:33:14.307Z,20.26
2018-08-17T08:35:41.935Z,20.30
2018-08-17T08:38:09.637Z,20.37
2018-08-17T08:40:37.167Z,20.44
2018-08-17T08:43:04.748Z,20.52
2018-08-17T08:45:32.392Z,20.39
2018-08-17T08:47:59.883Z,20.06
2018-08-17T08:50:27.656Z,19.98
2018-08-17T08:52:55.358Z,20.16
2018-08-17T08:55:24.008Z,20.38
2018-08-17T08:57:51.824Z,20.57
2018-08-17T09:00:19.385Z,20.35
2018-08-17T09:02:46.975Z,20.56
2018-08-17T09:05:14.507Z,20.71
2018-08-17T09:07:42.102Z,20.22
2018-08-17T09:10:09.719Z,20.50
2018-08-17T09:12:39.339Z,20.46
2018-08-17T09:15:06.919Z,20.10
2018-08-17T09:17:34.507Z,19.66
2018-08-17T09:20:02.077Z,19.80
2018-08-17T09:22:29.777Z,20.20
2018-08-17T09:24:57.374Z,20.35
2018-08-17T09:27:26.285Z,20.45
2018-08-17T09:29:54.000Z,20.47
2018-08-17T09:32:21.597Z,20.47
2018-08-17T09:34:49.188Z,20.63
2018-08-17T09:37:16.796Z,20.57
2018-08-17T09:39:44.393Z,20.77
2018-08-17T09:42:12.010Z,20.43
2018-08-17T09:44:39.522Z,20.10
2018-08-17T09:47:07.259Z,20.60
2018-08-17T09:49:35.052Z,20.17
2018-08-17T09:52:02.965Z,20.02
2018-08-17T09:54:32.350Z,20.30
2018-08-17T09:57:00.085Z,20.15
2018-08-17T09:59:27.755Z,19.87
2018-08-17T10:02:12.290Z,19.87
2018-08-17T10:04:39.907Z,20.27
2018-08-17T10:07:07.680Z,20.12
2018-08-17T10:09:35.294Z,20.15
2018-08-17T10:12:02.924Z,20.05
2018-08-17T10:14:30.975Z,19.79
2018-08-17T10:16:58.590Z,19.91
2018-08-17T10:19:26.239Z,19.96
2018-08-17T10:21:54.331Z,20.25
2018-08-17T10:24:21.824Z,20.41
2018-08-17T10:26:49.512Z,20.09
2018-08-17T10:29:17.227Z,20.37
2018-08-17T10:31:44.949Z,20.47
2018-08-17T10:34:12.548Z,20.45
2018-08-17T10:36:40.260Z,20.69
2018-08-17T10:39:08.039Z,20.49
2018-08-17T10:41:35.747Z,20.09
2018-08-17T10:44:03.450Z,20.04
2018-08-17T10:46:31.018Z,20.41
2018-08-17T10:49:02.965Z,19.89
2018-08-17T10:51:30.812Z,20.16
2018-08-17T10:53:58.556Z,20.48
2018-08-17T10:56:26.119Z,19.95
2018-08-17T10:58:53.925Z,19.73
2018-08-17T11:01:21.565Z,19.98
2018-08-17T11:03:49.405Z,20.01
2018-08-17T11:06:17.263Z,20.39
2018-08-17T11:08:45.384Z,20.71
2018-08-17T11:11:13.679Z,20.90
2018-08-17T11:13:42.557Z,20.75
2018-08-17T11:16:10.450Z,20.45
2018-08-17T11:18:38.016Z,20.22
2018-08-17T11:21:05.699Z,20.29
2018-08-17T11:23:33.333Z,20.21
2018-08-17T11:26:01.145Z,20.70
2018-08-17T11:28:28.930Z,20.96
2018-08-17T11:30:56.485Z,20.95
2018-08-17T11:33:24.658Z,20.89
2018-08-17T11:35:52.257Z,20.88
2018-08-17T11:38:20.125Z,20.76
2018-08-17T11:40:49.688Z,20.66
2018-08-17T11:43:18.262Z,20.56
2018-08-17T11:45:46.009Z,20.88
2018-08-17T11:48:13.816Z,20.72
2018-08-17T11:50:41.418Z,20.49
2018-08-17T11:53:09.311Z,20.80
2018-08-17T11:55:36.850Z,20.28
2018-08-17T11:58:04.743Z,20.62
2018-08-17T12:00:32.288Z,20.67
2018-08-17T12:02:59.862Z,20.26
2018-08-17T12:05:27.524Z,20.17
2018-08-17T12:07:55.145Z,20.38
2018-08-17T12:10:22.707Z,20.19
2018-08-17T12:12:50.329Z,20.74
2018-08-17T12:15:17.987Z,20.17
2018-08-17T12:17:46.442Z,20.35
2018-08-17T12:20:15.001Z,20.51
2018-08-17T12:22:43.017Z,20.63
2018-08-17T12:25:10.598Z,20.83
2018-08-17T12:27:38.192Z,20.88
2018-08-17T12:30:05.795Z,20.19
2018-08-17T12:32:33.334Z,20.42
2018-08-17T12:35:00.960Z,20.40
2018-08-17T12:37:28.521Z,20.56
2018-08-17T12:39:56.148Z,20.52
2018-08-17T12:42:23.884Z,20.60
2018-08-17T12:44:51.461Z,20.64
2018-08-17T12:47:20.105Z,20.50
2018-08-17T12:49:48.222Z,20.31
2018-08-17T12:52:16.129Z,20.31
2018-08-17T12:54:44.446Z,20.13
2018-08-17T12:57:12.606Z,20.59
2018-08-17T12:59:41.190Z,20.30
2018-08-17T13:02:09.179Z,20.39
2018-08-17T13:04:36.971Z,20.78
2018-08-17T13:07:04.619Z,20.73
2018-08-17T13:09:32.585Z,20.54
2018-08-17T13:12:01.472Z,20.39
2018-08-17T13:14:29.836Z,20.64
2018-08-17T13:16:57.459Z,20.94
2018-08-17T13:19:25.358Z,20.43
2018-08-17T13:21:52.954Z,20.44
2018-08-17T13:24:20.777Z,20.24
2018-08-17T13:26:48.554Z,20.65
2018-08-17T13:29:16.479Z,20.47
2018-08-17T13:31:44.220Z,20.56
2018-08-17T13:34:12.355Z,20.37
2018-08-17T13:36:39.952Z,20.44
2018-08-17T13:39:08.592Z,20.66
2018-08-17T13:41:36.496Z,20.94
2018-08-17T13:44:04.704Z,21.11
2018-08-17T13:46:32.614Z,21.17
2018-08-17T13:49:01.031Z,21.30
2018-08-17T13:51:28.944Z,21.46
2018-08-17T13:53:56.610Z,21.60
2018-08-17T13:56:24.301Z,21.38
2018-08-17T13:58:52.191Z,21.13
2018-08-17T14:01:19.973Z,21.16
2018-08-17T14:03:47.761Z,20.91
2018-08-17T14:06:15.287Z,20.71
2018-08-17T14:08:42.893Z,20.99
2018-08-17T14:11:10.412Z,21.23
2018-08-17T14:13:38.141Z,20.95
2018-08-17T14:16:05.843Z,21.09
2018-08-17T14:18:33.417Z,21.34
2018-08-17T14:21:01.158Z,21.35
2018-08-17T14:23:28.741Z,21.59
2018-08-17T14:25:56.302Z,21.73
2018-08-17T14:28:23.842Z,21.81
2018-08-17T14:30:51.509Z,21.77
2018-08-17T14:33:19.085Z,21.86
2018-08-17T14:35:46.653Z,21.78
2018-08-17T14:38:14.210Z,21.25
2018-08-17T14:40:41.800Z,21.32
2018-08-17T14:43:09.413Z,21.13
2018-08-17T14:45:36.960Z,21.60
2018-08-17T14:48:04.559Z,21.40
2018-08-17T14:50:32.075Z,21.53
2018-08-17T14:52:59.696Z,21.85
2018-08-17T14:55:27.289Z,21.91
2018-08-17T14:57:54.888Z,21.96
2018-08-17T15:00:22.788Z,22.10
2018-08-17T15:02:51.507Z,22.01
2018-08-17T15:05:19.341Z,22.05
2018-08-17T15:07:47.047Z,22.05
2018-08-17T15:10:14.602Z,22.21
2018-08-17T15:12:42.745Z,22.38
2018-08-17T15:15:10.506Z,22.42
2018-08-17T15:17:38.070Z,22.45
2018-08-17T15:20:05.653Z,22.40
2018-08-17T15:22:33.498Z,22.39
2018-08-17T15:25:01.302Z,22.54
2018-08-17T15:27:29.136Z,22.49
2018-08-17T15:29:56.726Z,22.59
2018-08-17T15:32:24.364Z,22.50
2018-08-17T15:34:52.241Z,22.50
2018-08-17T15:37:19.925Z,22.77
2018-08-17T15:39:47.520Z,22.47
2018-08-17T15:42:15.058Z,22.69
2018-08-17T15:44:42.640Z,22.78
2018-08-17T15:47:10.170Z,22.57
2018-08-17T15:49:39.053Z,22.10
2018-08-17T15:52:06.602Z,22.52
2018-08-17T15:54:34.417Z,22.88
2018-08-17T15:57:02.024Z,23.01
2018-08-17T15:59:30.302Z,23.20
2018-08-17T16:01:58.554Z,23.27
2018-08-17T16:04:26.537Z,22.98
2018-08-17T16:06:54.638Z,23.01
2018-08-17T16:09:22.313Z,23.01
2018-08-17T16:11:50.059Z,22.44
2018-08-17T16:14:17.779Z,22.66
2018-08-17T16:16:45.556Z,23.02
2018-08-17T16:19:13.074Z,22.98
2018-08-17T16:21:40.785Z,22.96
2018-08-17T16:24:08.325Z,23.02
2018-08-17T16:26:35.865Z,22.61
2018-08-17T16:29:03.486Z,22.87
2018-08-17T16:31:31.058Z,23.04
2018-08-17T16:33:58.632Z,23.26
2018-08-17T16:36:26.190Z,23.50
2018-08-17T16:38:53.717Z,23.59
2018-08-17T16:41:21.359Z,23.76
2018-08-17T16:43:48.875Z,23.81
2018-08-17T16:46:16.501Z,23.86
2018-08-17T16:48:44.085Z,23.95
2018-08-17T16:51:11.769Z,23.97
2018-08-17T16:53:39.362Z,23.79
2018-08-17T16:56:07.217Z,24.04
2018-08-17T16:58:35.195Z,24.26
2018-08-17T17:01:03.105Z,24.20
2018-08-17T17:03:30.685Z,24.31
2018-08-17T17:05:58.252Z,23.81
2018-08-17T17:10:53.082Z,24.25
2018-08-17T17:13:20.869Z,24.06
2018-08-17T17:15:48.516Z,24.24
2018-08-17T17:18:17.217Z,24.19
2018-08-17T17:20:44.827Z,24.32
2018-08-17T17:23:12.367Z,24.25
2018-08-17T17:25:39.941Z,24.16
2018-08-17T17:28:07.467Z,24.04
2018-08-17T17:30:35.034Z,24.06
2018-08-17T17:33:07.233Z,24.10
2018-08-17T17:35:34.820Z,24.11
2018-08-17T17:38:02.421Z,24.02
2018-08-17T17:40:30.096Z,23.84
2018-08-17T17:42:57.649Z,23.82
2018-08-17T17:45:25.208Z,23.78
2018-08-17T17:47:52.814Z,23.69
2018-08-17T17:50:20.341Z,23.67
2018-08-17T17:52:48.445Z,23.67
2018-08-17T17:55:17.075Z,23.56
2018-08-17T17:57:44.656Z,23.26
2018-08-17T18:00:12.226Z,23.28
2018-08-17T18:02:39.790Z,22.97
2018-08-17T18:05:07.369Z,22.88
2018-08-17T18:07:34.889Z,22.61
2018-08-17T18:10:02.427Z,22.38
2018-08-17T18:12:29.979Z,22.70
2018-08-17T18:14:57.717Z,22.67
2018-08-17T18:17:25.264Z,22.61
2018-08-17T18:19:52.840Z,22.36
2018-08-17T18:22:20.394Z,22.32
2018-08-17T18:24:48.331Z,22.35
2018-08-17T18:27:15.916Z,22.12
2018-08-17T18:29:43.492Z,22.00
2018-08-17T18:32:11.202Z,22.07
2018-08-17T18:34:38.878Z,21.86
2018-08-17T18:37:06.583Z,21.79
2018-08-17T18:39:34.090Z,21.67
2018-08-17T18:42:01.672Z,21.64
2018-08-17T18:44:29.207Z,21.38
2018-08-17T18:46:56.841Z,21.38
2018-08-17T18:49:24.363Z,21.45
2018-08-17T18:51:51.980Z,21.41
2018-08-17T18:54:19.504Z,21.37
2018-08-17T18:56:47.062Z,21.34
2018-08-17T18:59:14.671Z,21.15
2018-08-17T19:01:42.195Z,20.98
2018-08-17T19:04:09.769Z,20.97
2018-08-17T19:06:37.341Z,20.69
2018-08-17T19:09:04.859Z,20.71
2018-08-17T19:11:32.429Z,20.69
2018-08-17T19:14:00.015Z,20.71
2018-08-17T19:16:27.544Z,20.72
2018-08-17T19:18:55.122Z,21.01
2018-08-17T19:21:22.675Z,20.89
2018-08-17T19:23:50.225Z,20.69
2018-08-17T19:26:17.799Z,20.77
2018-08-17T19:28:45.387Z,20.56
2018-08-17T19:31:12.919Z,20.36
2018-08-17T19:33:40.472Z,20.20
2018-08-17T19:36:07.990Z,20.10
2018-08-17T19:38:35.621Z,20.07
2018-08-17T19:41:03.364Z,20.14
2018-08-17T19:43:30.955Z,20.04
2018-08-17T19:45:58.576Z,19.95
2018-08-17T19:48:26.068Z,20.04
2018-08-17T19:50:53.842Z,20.05
2018-08-17T19:53:21.356Z,19.93
2018-08-17T19:55:48.950Z,19.62
2018-08-17T19:58:16.541Z,19.76
2018-08-17T20:00:44.272Z,19.40
2018-08-17T20:03:12.069Z,19.24
2018-08-17T20:05:41.697Z,19.34
2018-08-17T20:08:09.297Z,19.68
2018-08-17T20:10:36.850Z,19.79
2018-08-17T20:13:04.406Z,19.65
2018-08-17T20:15:31.982Z,19.42
2018-08-17T20:17:59.592Z,19.50
2018-08-17T20:20:27.372Z,19.67
2018-08-17T20:22:54.896Z,19.51
2018-08-17T20:25:22.533Z,19.47
2018-08-17T20:27:50.121Z,19.20
2018-08-17T20:30:17.779Z,18.91
2018-08-17T20:32:45.589Z,18.60
2018-08-17T20:35:13.141Z,18.24
2018-08-17T20:37:40.692Z,18.07
2018-08-17T20:40:08.288Z,17.97
2018-08-17T20:42:35.807Z,18.17
2018-08-17T20:45:03.496Z,18.27
2018-08-17T20:47:31.103Z,18.20
2018-08-17T20:49:58.670Z,17.95
2018-08-17T20:52:27.367Z,18.15
2018-08-17T20:54:54.958Z,18.20
2018-08-17T20:57:22.528Z,18.24
2018-08-17T20:59:50.108Z,18.32
2018-08-17T21:02:17.724Z,18.26
2018-08-17T21:04:45.405Z,18.16
2018-08-17T21:07:12.981Z,18.34
2018-08-17T21:09:40.524Z,18.40
2018-08-17T21:12:08.319Z,18.14
2018-08-17T21:14:36.005Z,18.01
2018-08-17T21:17:03.577Z,17.74
2018-08-17T21:19:31.159Z,17.84
2018-08-17T21:21:58.687Z,17.89
2018-08-17T21:24:26.281Z,17.73
2018-08-17T21:26:53.799Z,17.60
2018-08-17T21:29:21.633Z,17.55
2018-08-17T21:31:49.048Z,17.61
2018-08-17T21:34:16.603Z,17.70
2018-08-17T21:36:44.195Z,17.67
2018-08-17T21:39:11.837Z,17.67
2018-08-17T21:41:39.387Z,17.53
2018-08-17T21:44:06.978Z,17.54
2018-08-17T21:46:34.524Z,17.64
2018-08-17T21:49:02.053Z,17.69
2018-08-17T21:51:29.616Z,17.44
2018-08-17T21:53:57.154Z,17.32
2018-08-17T21:56:24.740Z,17.32
2018-08-17T21:58:52.425Z,17.43
2018-08-17T22:01:20.012Z,17.30
2018-08-17T22:03:47.634Z,17.19
2018-08-17T22:06:15.236Z,17.34
2018-08-17T22:08:42.924Z,17.18
2018-08-17T22:11:10.527Z,17.16
2018-08-17T22:13:38.127Z,17.21
2018-08-17T22:16:05.692Z,17.09
2018-08-17T22:18:33.287Z,17.33
2018-08-17T22:21:00.831Z,17.23
2018-08-17T22:23:28.428Z,17.33
2018-08-17T22:25:55.995Z,17.31
2018-08-17T22:28:23.552Z,17.39
2018-08-17T22:30:51.079Z,17.28
2018-08-17T22:33:18.650Z,17.08
2018-08-17T22:35:46.235Z,17.04
2018-08-17T22:38:13.823Z,16.98
2018-08-17T22:40:41.400Z,17.03
2018-08-17T22:43:08.926Z,17.27
2018-08-17T22:45:36.667Z,17.28
2018-08-17T22:48:04.214Z,17.37
2018-08-17T22:50:31.792Z,17.43
2018-08-17T22:52:59.380Z,17.50
2018-08-17T22:55:26.975Z,17.39
2018-08-17T22:57:54.545Z,17.47
2018-08-17T23:00:22.140Z,17.48
2018-08-17T23:02:49.676Z,17.55
2018-08-17T23:05:17.255Z,17.41
2018-08-17T23:07:44.781Z,17.61
2018-08-17T23:10:12.343Z,17.57
2018-08-17T23:12:39.924Z,17.54
2018-08-17T23:15:07.493Z,17.53
2018-08-17T23:17:35.087Z,17.73
2018-08-17T23:20:02.670Z,17.68
2018-08-17T23:22:30.219Z,17.75
2018-08-17T23:24:57.740Z,18.01
2018-08-17T23:27:25.311Z,18.15
2018-08-17T23:29:52.845Z,18.30
2018-08-17T23:32:20.561Z,18.00
2018-08-17T23:34:48.420Z,18.27
2018-08-17T23:37:16.008Z,18.29
2018-08-17T23:39:43.583Z,18.37
2018-08-17T23:42:11.117Z,18.41
2018-08-17T23:44:38.707Z,18.00
2018-08-17T23:47:06.323Z,17.87
2018-08-17T23:49:33.925Z,17.58
2018-08-17T23:52:01.466Z,17.39
2018-08-17T23:54:29.034Z,16.89
2018-08-17T23:56:56.627Z,17.02
2018-08-17T23:59:24.181Z,16.91
